Aimaru — JD3994 — position and weather

sailwx.info

Track history (hours):
 
Tides and Currents Weather Stations Pressure Air Temp Water Temp Dewpoint Dewpoint Depression Visibility Wind Speed Wind Dir Waves Ship Positions

Aimaru

Last reported at 2017-Oct-16 01:31 UTC. Time now 2017-Oct-16 22:37 UTC.
Position N 34°40' E 135°27'.

Length 65 m; draft 3.6 m.

Type: Tanker. MMSI: 431007966.

Date/timePositionNaut miles runAvg speedWind from/ knotsBaromVisibWave heightAir tempDewpointWater temp
2017-Oct-16 01:31N 34°40' E 135°27'0 4.5
2017-Oct-16 01:31N 34°40' E 135°27'2 1.0
2017-Oct-15 23:35N 34°40' E 135°25'0 0.0
2017-Oct-15 23:30N 34°40' E 135°25'2 4.7
2017-Oct-15 23:00N 34°39' E 135°22'1 1.5
2017-Oct-15 22:22N 34°39' E 135°21'0 0.0
2017-Oct-15 21:58N 34°39' E 135°21'0 0.0
2017-Oct-15 21:28N 34°39' E 135°21'0 0.0
2017-Oct-15 20:58N 34°39' E 135°21'0 0.0
2017-Oct-15 20:22N 34°39' E 135°21'0 0.0
2017-Oct-15 19:58N 34°39' E 135°21'0 0.0
2017-Oct-15 19:28N 34°39' E 135°21'3 7.1
2017-Oct-15 19:00N 34°36' E 135°19'611.9
2017-Oct-15 18:30N 34°31' E 135°15'611.7
2017-Oct-15 18:00N 34°27' E 135°10'611.7
2017-Oct-15 17:29N 34°23' E 135°05'811.3
2017-Oct-15 16:47N 34°16' E 134°59'411.1
2017-Oct-15 16:24N 34°12' E 135°00'611.9
2017-Oct-15 15:56N 34°06' E 135°00'  
2017-Oct-13 08:32N 34°60' E 139°24'010.2
2017-Oct-13 08:30N 35°00' E 139°24'511.1
2017-Oct-13 08:00N 35°03' E 139°30'612.0
2017-Oct-13 07:30N 35°05' E 139°37'713.3
2017-Oct-13 07:00N 35°09' E 139°43'612.3
2017-Oct-13 06:30N 35°15' E 139°46'612.4
2017-Oct-13 06:00N 35°20' E 139°42'612.4
2017-Oct-13 05:31N 35°26' E 139°43'4 7.4
2017-Oct-13 05:01N 35°30' E 139°44'0 0.0
2017-Oct-13 04:31N 35°30' E 139°44'0 0.0
2017-Oct-13 04:00N 35°30' E 139°44'0 0.0
2017-Oct-13 03:30N 35°30' E 139°44'0 0.0
2017-Oct-13 03:01N 35°30' E 139°44'0 0.0
2017-Oct-13 02:31N 35°30' E 139°44'0 0.0
2017-Oct-13 02:00N 35°30' E 139°44'0 0.0
2017-Oct-13 01:31N 35°30' E 139°44'0 0.0
2017-Oct-13 01:01N 35°30' E 139°44'0 0.0
2017-Oct-13 00:31N 35°30' E 139°44'0 0.0
2017-Oct-13 00:01N 35°30' E 139°44'0 0.0
2017-Oct-12 23:31N 35°30' E 139°44'0 0.0
2017-Oct-12 23:01N 35°30' E 139°44'3 6.8
2017-Oct-12 22:30N 35°30' E 139°48'2 2.9
2017-Oct-12 21:52N 35°30' E 139°51'0 0.0
2017-Oct-12 21:25N 35°30' E 139°51'0 0.0
2017-Oct-12 19:55N 35°30' E 139°51'0 0.0
2017-Oct-12 19:25N 35°30' E 139°51'0 0.0
2017-Oct-12 18:58N 35°30' E 139°51'0 0.0
2017-Oct-12 18:25N 35°30' E 139°51'0 0.0
2017-Oct-12 17:58N 35°30' E 139°51'0 0.0
2017-Oct-12 17:25N 35°30' E 139°51'0 0.0
2017-Oct-12 16:58N 35°30' E 139°51'0 0.0
2017-Oct-12 16:28N 35°30' E 139°51'0 0.0
2017-Oct-12 15:58N 35°30' E 139°51'0 0.0
2017-Oct-12 15:28N 35°30' E 139°51'0 0.0
2017-Oct-12 14:58N 35°30' E 139°51'0 0.0
2017-Oct-12 14:28N 35°30' E 139°51'0 0.0
2017-Oct-12 13:58N 35°30' E 139°51'0 0.1
2017-Oct-12 13:22N 35°31' E 139°51'0 0.0
2017-Oct-12 12:58N 35°31' E 139°51'0 0.0
2017-Oct-12 11:28N 35°31' E 139°51'0 0.0
2017-Oct-12 08:02N 35°31' E 139°51'0 1.2
2017-Oct-12 08:00N 35°31' E 139°51'510.3
2017-Oct-12 07:30N 35°32' E 139°57'2 0.5
2017-Oct-12 03:24N 35°31' E 139°59'12 0.3
2017-Oct-10 17:08N 35°25' E 139°47'212.2
2017-Oct-10 16:57N 35°23' E 139°46'512.0
2017-Oct-10 16:30N 35°18' E 139°45'611.3
2017-Oct-10 16:00N 35°13' E 139°47'612.5
2017-Oct-10 15:30N 35°07' E 139°46'612.5
2017-Oct-10 15:00N 35°02' E 139°40'2413.3
2017-Oct-10 13:14N 34°48' E 139°17'  
Track history (hours):
 
Tides and Currents Weather Stations Pressure Air Temp Water Temp Dewpoint Dewpoint Depression Visibility Wind Speed Wind Dir Waves Ship Positions

Aimaru

Last reported at 2017-Oct-16 01:31 UTC. Time now 2017-Oct-16 22:37 UTC.
Position N 34°40' E 135°27'.

Length 65 m; draft 3.6 m.

Type: Tanker. MMSI: 431007966.

Date/timePositionNaut miles runAvg speedWind from/ knotsBaromVisibWave heightAir tempDewpointWater temp
2017-Oct-16 01:31N 34°40' E 135°27'0 4.5
2017-Oct-16 01:31N 34°40' E 135°27'2 1.0
2017-Oct-15 23:35N 34°40' E 135°25'0 0.0
2017-Oct-15 23:30N 34°40' E 135°25'2 4.7
2017-Oct-15 23:00N 34°39' E 135°22'1 1.5
2017-Oct-15 22:22N 34°39' E 135°21'0 0.0
2017-Oct-15 21:58N 34°39' E 135°21'0 0.0
2017-Oct-15 21:28N 34°39' E 135°21'0 0.0
2017-Oct-15 20:58N 34°39' E 135°21'0 0.0
2017-Oct-15 20:22N 34°39' E 135°21'0 0.0
2017-Oct-15 19:58N 34°39' E 135°21'0 0.0
2017-Oct-15 19:28N 34°39' E 135°21'3 7.1
2017-Oct-15 19:00N 34°36' E 135°19'611.9
2017-Oct-15 18:30N 34°31' E 135°15'611.7
2017-Oct-15 18:00N 34°27' E 135°10'611.7
2017-Oct-15 17:29N 34°23' E 135°05'811.3
2017-Oct-15 16:47N 34°16' E 134°59'411.1
2017-Oct-15 16:24N 34°12' E 135°00'611.9
2017-Oct-15 15:56N 34°06' E 135°00'  
2017-Oct-13 08:32N 34°60' E 139°24'010.2
2017-Oct-13 08:30N 35°00' E 139°24'511.1
2017-Oct-13 08:00N 35°03' E 139°30'612.0
2017-Oct-13 07:30N 35°05' E 139°37'713.3
2017-Oct-13 07:00N 35°09' E 139°43'612.3
2017-Oct-13 06:30N 35°15' E 139°46'612.4
2017-Oct-13 06:00N 35°20' E 139°42'612.4
2017-Oct-13 05:31N 35°26' E 139°43'4 7.4
2017-Oct-13 05:01N 35°30' E 139°44'0 0.0
2017-Oct-13 04:31N 35°30' E 139°44'0 0.0
2017-Oct-13 04:00N 35°30' E 139°44'0 0.0
2017-Oct-13 03:30N 35°30' E 139°44'0 0.0
2017-Oct-13 03:01N 35°30' E 139°44'0 0.0
2017-Oct-13 02:31N 35°30' E 139°44'0 0.0
2017-Oct-13 02:00N 35°30' E 139°44'0 0.0
2017-Oct-13 01:31N 35°30' E 139°44'0 0.0
2017-Oct-13 01:01N 35°30' E 139°44'0 0.0
2017-Oct-13 00:31N 35°30' E 139°44'0 0.0
2017-Oct-13 00:01N 35°30' E 139°44'0 0.0
2017-Oct-12 23:31N 35°30' E 139°44'0 0.0
2017-Oct-12 23:01N 35°30' E 139°44'3 6.8
2017-Oct-12 22:30N 35°30' E 139°48'2 2.9
2017-Oct-12 21:52N 35°30' E 139°51'0 0.0
2017-Oct-12 21:25N 35°30' E 139°51'0 0.0
2017-Oct-12 19:55N 35°30' E 139°51'0 0.0
2017-Oct-12 19:25N 35°30' E 139°51'0 0.0
2017-Oct-12 18:58N 35°30' E 139°51'0 0.0
2017-Oct-12 18:25N 35°30' E 139°51'0 0.0
2017-Oct-12 17:58N 35°30' E 139°51'0 0.0
2017-Oct-12 17:25N 35°30' E 139°51'0 0.0
2017-Oct-12 16:58N 35°30' E 139°51'0 0.0
2017-Oct-12 16:28N 35°30' E 139°51'0 0.0
2017-Oct-12 15:58N 35°30' E 139°51'0 0.0
2017-Oct-12 15:28N 35°30' E 139°51'0 0.0
2017-Oct-12 14:58N 35°30' E 139°51'0 0.0
2017-Oct-12 14:28N 35°30' E 139°51'0 0.0
2017-Oct-12 13:58N 35°30' E 139°51'0 0.1
2017-Oct-12 13:22N 35°31' E 139°51'0 0.0
2017-Oct-12 12:58N 35°31' E 139°51'0 0.0
2017-Oct-12 11:28N 35°31' E 139°51'0 0.0
2017-Oct-12 08:02N 35°31' E 139°51'0 1.2
2017-Oct-12 08:00N 35°31' E 139°51'510.3
2017-Oct-12 07:30N 35°32' E 139°57'2 0.5
2017-Oct-12 03:24N 35°31' E 139°59'12 0.3
2017-Oct-10 17:08N 35°25' E 139°47'212.2
2017-Oct-10 16:57N 35°23' E 139°46'512.0
2017-Oct-10 16:30N 35°18' E 139°45'611.3
2017-Oct-10 16:00N 35°13' E 139°47'612.5
2017-Oct-10 15:30N 35°07' E 139°46'612.5
2017-Oct-10 15:00N 35°02' E 139°40'2413.3
2017-Oct-10 13:14N 34°48' E 139°17'  

Dump ship's entire track history